Time;durP1;ratioP1;P1;durP2;ratioP2;P2;SDS_P1;SDS_P2;PMS_P1;PMS_P2;Temp;Humidity;BMP_temperature;BMP_pressure;BME280_temperature;BME280_humidity;BME280_pressure;Samples;Min_cycle;Max_cycle;Signal;HPM_P1;HPM_P2
2022/12/28 00:00:36;;;;;;;;;;;;;;;;;;4448197;32;19952;-76
2022/12/28 00:03:01;;;;;;;;;;;;;;;;;;4452831;32;19971;-75
2022/12/28 00:05:26;;;;;;;;;;;;;;;;;;4455049;32;20302;-75
2022/12/28 00:07:51;;;;;;;;;;;;;;;;;;4453632;32;20334;-75
2022/12/28 00:10:16;;;;;;;;;;;;;;;;;;4453212;32;19966;-74
2022/12/28 00:12:41;;;;;;;;;;;;;;;;;;4453423;32;19937;-74
2022/12/28 00:15:06;;;;;;;;;;;;;;;;;;4453453;32;19940;-76
2022/12/28 00:17:31;;;;;;;;;;;;;;;;;;4454959;32;19933;-75
2022/12/28 00:19:58;;;;;;;;;;;;;;;;;;4453576;32;19937;-75
2022/12/28 00:22:23;;;;;;;;;;;;;;;;;;4453553;32;19932;-75
2022/12/28 00:24:48;;;;;;;;;;;;;;;;;;4453620;32;20269;-74
2022/12/28 00:27:13;;;;;;;;;;;;;;;;;;4454208;32;19932;-75
2022/12/28 00:29:38;;;;;;;;;;;;;;;;;;4457160;32;19932;-74
2022/12/28 00:32:03;;;;;;;;;;;;;;;;;;4454451;32;20348;-74
2022/12/28 00:34:28;;;;;;;;;;;;;;;;;;4438766;32;19933;-74
2022/12/28 00:36:54;;;;;;;;;;;;;;;;;;4453352;32;20340;-74
2022/12/28 00:39:19;;;;;;;;;;;;;;;;;;4453277;32;20284;-75
2022/12/28 00:41:44;;;;;;;;;;;;;;;;;;4453607;32;19947;-74
2022/12/28 00:44:09;;;;;;;;;;;;;;;;;;4452713;32;20024;-75
2022/12/28 00:46:34;;;;;;;;;;;;;;;;;;4452329;32;20266;-75
2022/12/28 00:48:59;;;;;;;;;;;;;;;;;;4452880;32;20060;-74
2022/12/28 00:51:24;;;;;;;;;;;;;;;;;;4454012;32;20310;-74
2022/12/28 00:53:49;;;;;;;;;;;;;;;;;;4453070;32;19932;-72
2022/12/28 00:56:15;;;;;;;;;;;;;;;;;;4438736;32;19973;-73
2022/12/28 00:58:40;;;;;;;;;;;;;;;;;;4452631;32;19997;-73
2022/12/28 01:01:05;;;;;;;;;;;;;;;;;;4452631;32;20292;-73
2022/12/28 01:03:30;;;;;;;;;;;;;;;;;;4454281;32;20305;-73
2022/12/28 01:05:55;;;;;;;;;;;;;;;;;;4438177;32;19936;-72
2022/12/28 01:08:20;;;;;;;;;;;;;;;;;;4453025;32;20329;-72
2022/12/28 01:10:45;;;;;;;;;;;;;;;;;;4454207;32;20290;-72
2022/12/28 01:13:10;;;;;;;;;;;;;;;;;;4452684;32;19933;-73
2022/12/28 01:15:35;;;;;;;;;;;;;;;;;;4438991;32;20001;-71
2022/12/28 01:18:00;;;;;;;;;;;;;;;;;;4453976;32;19936;-72
2022/12/28 01:20:26;;;;;;;;;;;;;;;;;;4452128;32;19932;-73
2022/12/28 01:22:51;;;;;;;;;;;;;;;;;;4452979;32;19952;-71
2022/12/28 01:25:16;;;;;;;;;;;;;;;;;;4452194;32;19967;-71
2022/12/28 01:27:41;;;;;;;;;;;;;;;;;;4438378;32;19933;-73
2022/12/28 01:30:06;;;;;;;;;;;;;;;;;;4438477;32;19936;-72
2022/12/28 01:32:31;;;;;;;;;;;;;;;;;;4452395;32;19979;-72
2022/12/28 01:34:56;;;;;;;;;;;;;;;;;;4452375;32;20365;-72
2022/12/28 01:37:22;;;;;;;;;;;;;;;;;;4453338;32;20314;-74
2022/12/28 01:39:47;;;;;;;;;;;;;;;;;;4452362;32;20257;-73
2022/12/28 01:42:12;;;;;;;;;;;;;;;;;;4452129;32;20262;-72
2022/12/28 01:44:37;;;;;;;;;;;;;;;;;;4437968;32;19943;-72
2022/12/28 01:47:02;;;;;;;;;;;;;;;;;;4452329;32;19933;-72
2022/12/28 01:49:27;;;;;;;;;;;;;;;;;;4452324;32;19962;-73
2022/12/28 01:51:52;;;;;;;;;;;;;;;;;;4457956;32;19947;-73
2022/12/28 01:54:17;;;;;;;;;;;;;;;;;;4453237;32;19932;-72
2022/12/28 01:56:42;;;;;;;;;;;;;;;;;;4453857;32;19939;-73
2022/12/28 01:59:07;;;;;;;;;;;;;;;;;;4453419;32;19951;-73
2022/12/28 02:01:33;;;;;;;;;;;;;;;;;;4438415;32;19951;-73
2022/12/28 02:03:58;;;;;;;;;;;;;;;;;;4451938;32;19969;-72
2022/12/28 02:06:24;;;;;;;;;;;;;;;;;;4439322;32;19977;-73
2022/12/28 02:08:49;;;;;;;;;;;;;;;;;;4439415;32;20297;-73
2022/12/28 02:11:14;;;;;;;;;;;;;;;;;;4451800;32;20220;-72
2022/12/28 02:13:39;;;;;;;;;;;;;;;;;;4453651;32;19940;-73
2022/12/28 02:16:05;;;;;;;;;;;;;;;;;;4452677;32;19936;-73
2022/12/28 02:18:30;;;;;;;;;;;;;;;;;;4452854;32;20016;-73
2022/12/28 02:20:55;;;;;;;;;;;;;;;;;;4437418;32;19944;-71
2022/12/28 02:23:20;;;;;;;;;;;;;;;;;;4452942;32;20035;-72
2022/12/28 02:25:45;;;;;;;;;;;;;;;;;;4439264;32;19941;-72
2022/12/28 02:28:10;;;;;;;;;;;;;;;;;;4456181;32;19986;-72
2022/12/28 02:30:35;;;;;;;;;;;;;;;;;;4454868;32;20020;-71
2022/12/28 02:33:00;;;;;;;;;;;;;;;;;;4454863;32;19967;-71
2022/12/28 02:35:25;;;;;;;;;;;;;;;;;;4454868;32;20398;-73
2022/12/28 02:37:50;;;;;;;;;;;;;;;;;;4454996;32;20249;-72
2022/12/28 02:40:15;;;;;;;;;;;;;;;;;;4454877;32;20339;-72
2022/12/28 02:42:41;;;;;;;;;;;;;;;;;;4456304;32;19991;-72
2022/12/28 02:50:34;;;;;;;;;;;;;;;;;;4455197;32;20312;-73
2022/12/28 02:52:59;;;;;;;;;;;;;;;;;;4458196;32;19946;-71
2022/12/28 02:58:08;;;;;;;;;;;;;;;;;;4458227;32;19939;-72
2022/12/28 03:00:33;;;;;;;;;;;;;;;;;;4456154;32;19933;-72
2022/12/28 03:02:58;;;;;;;;;;;;;;;;;;4454610;32;19933;-72
2022/12/28 03:08:13;;;;;;;;;;;;;;;;;;4454276;32;20306;-73
2022/12/28 03:08:21;;;;;;;;;;;;;;;;;;4454428;32;19935;-73
2022/12/28 03:10:46;;;;;;;;;;;;;;;;;;4456105;32;19936;-73
2022/12/28 03:13:41;;;;;;;;;;;;;;;;;;4456823;32;19932;-70
2022/12/28 03:15:56;;;;;;;;;;;;;;;;;;4457370;32;20246;-72
2022/12/28 03:32:01;;;;;;;;;;;;;;;;;;4455420;32;19949;-71
2022/12/28 03:34:26;;;;;;;;;;;;;;;;;;4455715;32;19933;-71
2022/12/28 03:36:51;;;;;;;;;;;;;;;;;;4454009;32;19952;-72
2022/12/28 03:39:16;;;;;;;;;;;;;;;;;;4454227;32;19936;-73
2022/12/28 03:41:41;;;;;;;;;;;;;;;;;;4440347;32;19946;-73
2022/12/28 03:44:06;;;;;;;;;;;;;;;;;;4454459;32;20276;-72
2022/12/28 03:46:31;;;;;;;;;;;;;;;;;;4455073;32;19948;-72
2022/12/28 03:48:57;;;;;;;;;;;;;;;;;;4454407;32;19947;-72
2022/12/28 03:51:22;;;;;;;;;;;;;;;;;;4454036;32;20036;-72
2022/12/28 03:53:47;;;;;;;;;;;;;;;;;;4453678;32;19992;-72
2022/12/28 03:56:12;;;;;;;;;;;;;;;;;;4454645;32;19932;-73
2022/12/28 03:58:37;;;;;;;;;;;;;;;;;;4453938;32;19937;-73
2022/12/28 04:01:02;;;;;;;;;;;;;;;;;;4453681;32;19936;-72
2022/12/28 04:03:27;;;;;;;;;;;;;;;;;;4453794;32;19932;-72
2022/12/28 04:05:53;;;;;;;;;;;;;;;;;;4453374;32;19941;-73
2022/12/28 04:08:18;;;;;;;;;;;;;;;;;;4453794;32;20008;-73
2022/12/28 04:10:43;;;;;;;;;;;;;;;;;;4453369;32;20343;-73
2022/12/28 04:13:08;;;;;;;;;;;;;;;;;;4453082;32;19981;-72
2022/12/28 04:15:33;;;;;;;;;;;;;;;;;;4454532;32;19968;-72
2022/12/28 04:17:58;;;;;;;;;;;;;;;;;;4453172;32;19947;-73
2022/12/28 04:20:23;;;;;;;;;;;;;;;;;;4453885;32;19936;-72
2022/12/28 04:22:48;;;;;;;;;;;;;;;;;;4453763;32;19952;-72
2022/12/28 04:25:13;;;;;;;;;;;;;;;;;;4453330;32;20013;-70
2022/12/28 04:27:38;;;;;;;;;;;;;;;;;;4453152;32;19974;-72
2022/12/28 04:30:04;;;;;;;;;;;;;;;;;;4453901;32;19932;-71
2022/12/28 04:32:29;;;;;;;;;;;;;;;;;;4454359;32;19993;-72
2022/12/28 04:34:54;;;;;;;;;;;;;;;;;;4455434;32;19932;-72
2022/12/28 04:37:19;;;;;;;;;;;;;;;;;;4457073;32;19984;-71
2022/12/28 04:39:44;;;;;;;;;;;;;;;;;;4455573;32;19983;-72
2022/12/28 04:42:09;;;;;;;;;;;;;;;;;;4455117;32;19943;-73
2022/12/28 04:44:34;;;;;;;;;;;;;;;;;;4452724;32;19933;-72
2022/12/28 04:46:59;;;;;;;;;;;;;;;;;;4452391;32;19964;-72
2022/12/28 04:49:24;;;;;;;;;;;;;;;;;;4452435;32;20274;-72
2022/12/28 04:51:50;;;;;;;;;;;;;;;;;;4452442;32;19988;-72
2022/12/28 04:54:15;;;;;;;;;;;;;;;;;;4454448;32;19974;-72
2022/12/28 04:56:40;;;;;;;;;;;;;;;;;;4454484;32;19972;-73
2022/12/28 04:59:05;;;;;;;;;;;;;;;;;;4452252;32;19940;-72
2022/12/28 05:01:31;;;;;;;;;;;;;;;;;;4438421;32;19951;-72
2022/12/28 05:03:56;;;;;;;;;;;;;;;;;;4452335;32;19975;-72
2022/12/28 05:06:21;;;;;;;;;;;;;;;;;;4438644;32;19937;-74
2022/12/28 05:08:46;;;;;;;;;;;;;;;;;;4452643;32;19980;-73
2022/12/28 05:11:11;;;;;;;;;;;;;;;;;;4452380;32;19932;-73
2022/12/28 05:13:36;;;;;;;;;;;;;;;;;;4453721;32;19947;-72
2022/12/28 05:16:01;;;;;;;;;;;;;;;;;;4438123;32;19940;-71
2022/12/28 05:18:26;;;;;;;;;;;;;;;;;;4452224;32;19944;-72
2022/12/28 05:20:51;;;;;;;;;;;;;;;;;;4452697;32;19940;-72
2022/12/28 05:23:17;;;;;;;;;;;;;;;;;;4452407;32;19963;-73
2022/12/28 05:25:42;;;;;;;;;;;;;;;;;;4437935;32;19937;-72
2022/12/28 05:28:07;;;;;;;;;;;;;;;;;;4451886;32;19946;-72
2022/12/28 05:30:32;;;;;;;;;;;;;;;;;;4451827;32;19944;-71
2022/12/28 05:32:57;;;;;;;;;;;;;;;;;;4437748;32;19932;-73
2022/12/28 05:35:22;;;;;;;;;;;;;;;;;;4437750;32;19964;-72
2022/12/28 05:37:47;;;;;;;;;;;;;;;;;;4437765;32;19951;-73
2022/12/28 05:40:12;;;;;;;;;;;;;;;;;;4452232;32;19981;-72
2022/12/28 05:42:37;;;;;;;;;;;;;;;;;;4451858;32;20310;-73
2022/12/28 05:45:02;;;;;;;;;;;;;;;;;;4451507;32;19944;-73
2022/12/28 05:47:28;;;;;;;;;;;;;;;;;;4438107;32;19944;-73
2022/12/28 05:49:53;;;;;;;;;;;;;;;;;;4437731;32;19937;-72
2022/12/28 05:52:18;;;;;;;;;;;;;;;;;;4451893;32;20246;-72
2022/12/28 05:54:43;;;;;;;;;;;;;;;;;;4452259;32;19951;-72
2022/12/28 05:57:08;;;;;;;;;;;;;;;;;;4453139;32;19947;-73
2022/12/28 05:59:33;;;;;;;;;;;;;;;;;;4453750;32;19936;-72
2022/12/28 06:01:58;;;;;;;;;;;;;;;;;;4451683;32;19937;-73
2022/12/28 06:04:24;;;;;;;;;;;;;;;;;;4451831;32;19936;-72
2022/12/28 06:06:49;;;;;;;;;;;;;;;;;;4453184;32;19943;-72
2022/12/28 06:09:14;;;;;;;;;;;;;;;;;;4453422;32;19992;-72
2022/12/28 06:11:39;;;;;;;;;;;;;;;;;;4452969;32;19937;-72
2022/12/28 06:14:04;;;;;;;;;;;;;;;;;;4451610;32;19992;-72
2022/12/28 06:16:29;;;;;;;;;;;;;;;;;;4451507;32;19975;-72
2022/12/28 06:18:54;;;;;;;;;;;;;;;;;;4451554;32;19937;-71
2022/12/28 06:21:20;;;;;;;;;;;;;;;;;;4451566;32;19948;-72
2022/12/28 06:23:45;;;;;;;;;;;;;;;;;;4451955;32;20330;-73
2022/12/28 06:26:10;;;;;;;;;;;;;;;;;;4451901;32;20020;-72
2022/12/28 06:28:35;;;;;;;;;;;;;;;;;;4452492;32;20301;-72
2022/12/28 06:31:00;;;;;;;;;;;;;;;;;;4451742;32;19966;-72
2022/12/28 06:33:25;;;;;;;;;;;;;;;;;;4451145;32;19941;-74
2022/12/28 06:35:50;;;;;;;;;;;;;;;;;;4451805;32;19986;-73
2022/12/28 06:38:15;;;;;;;;;;;;;;;;;;4451510;32;19946;-72
2022/12/28 06:40:40;;;;;;;;;;;;;;;;;;4451734;32;20366;-73
2022/12/28 06:43:05;;;;;;;;;;;;;;;;;;4451240;32;19984;-72
2022/12/28 06:45:31;;;;;;;;;;;;;;;;;;4451644;32;19936;-72
2022/12/28 06:47:56;;;;;;;;;;;;;;;;;;4451689;32;19948;-73
2022/12/28 06:50:21;;;;;;;;;;;;;;;;;;4453034;32;19991;-73
2022/12/28 06:52:46;;;;;;;;;;;;;;;;;;4451828;32;19952;-71
2022/12/28 06:55:11;;;;;;;;;;;;;;;;;;4451695;32;20004;-73
2022/12/28 06:57:36;;;;;;;;;;;;;;;;;;4453044;32;19947;-72
2022/12/28 07:00:01;;;;;;;;;;;;;;;;;;4451845;32;19956;-69
2022/12/28 07:02:26;;;;;;;;;;;;;;;;;;4451903;32;19932;-72
2022/12/28 07:04:51;;;;;;;;;;;;;;;;;;4452885;32;20305;-73
2022/12/28 07:07:17;;;;;;;;;;;;;;;;;;4452899;32;19997;-73
2022/12/28 07:09:42;;;;;;;;;;;;;;;;;;4451635;32;20302;-73
2022/12/28 07:12:07;;;;;;;;;;;;;;;;;;4437851;32;19981;-73
2022/12/28 07:14:32;;;;;;;;;;;;;;;;;;4441602;32;19944;-72
2022/12/28 07:16:57;;;;;;;;;;;;;;;;;;4453560;32;19952;-72
2022/12/28 07:19:22;;;;;;;;;;;;;;;;;;4453887;32;19983;-73
2022/12/28 07:21:47;;;;;;;;;;;;;;;;;;4455075;32;19937;-74
2022/12/28 07:24:12;;;;;;;;;;;;;;;;;;4453953;32;19943;-73
2022/12/28 07:26:38;;;;;;;;;;;;;;;;;;4455472;32;19990;-73
2022/12/28 07:29:03;;;;;;;;;;;;;;;;;;4439564;32;19933;-73
2022/12/28 07:31:28;;;;;;;;;;;;;;;;;;4453507;32;19967;-72
2022/12/28 07:33:54;;;;;;;;;;;;;;;;;;4453667;32;19951;-73
2022/12/28 07:36:19;;;;;;;;;;;;;;;;;;4441242;32;19952;-74
2022/12/28 07:38:44;;;;;;;;;;;;;;;;;;4439897;32;19940;-73
2022/12/28 07:41:09;;;;;;;;;;;;;;;;;;4454433;32;19932;-74
2022/12/28 07:43:34;;;;;;;;;;;;;;;;;;4453888;32;19945;-74
2022/12/28 07:45:59;;;;;;;;;;;;;;;;;;4454837;32;20282;-73
2022/12/28 07:48:24;;;;;;;;;;;;;;;;;;4455119;32;19935;-74
2022/12/28 07:50:50;;;;;;;;;;;;;;;;;;4453528;32;19955;-70
2022/12/28 07:53:15;;;;;;;;;;;;;;;;;;4453880;32;19944;-73
2022/12/28 07:55:42;;;;;;;;;;;;;;;;;;4454185;32;19985;-74
2022/12/28 07:58:07;;;;;;;;;;;;;;;;;;4453156;32;19947;-73
2022/12/28 08:00:32;;;;;;;;;;;;;;;;;;4454175;32;20271;-73
2022/12/28 08:02:57;;;;;;;;;;;;;;;;;;4453063;32;19932;-74
2022/12/28 08:05:22;;;;;;;;;;;;;;;;;;4453479;32;19940;-75
2022/12/28 08:07:47;;;;;;;;;;;;;;;;;;4439380;32;19955;-74
2022/12/28 08:10:12;;;;;;;;;;;;;;;;;;4453367;32;19932;-75
2022/12/28 08:12:38;;;;;;;;;;;;;;;;;;4453249;32;19941;-73
2022/12/28 08:15:03;;;;;;;;;;;;;;;;;;4454254;32;20335;-72
2022/12/28 08:17:28;;;;;;;;;;;;;;;;;;4454082;32;19937;-73
2022/12/28 08:19:54;;;;;;;;;;;;;;;;;;4456099;32;19936;-71
2022/12/28 08:22:19;;;;;;;;;;;;;;;;;;4439897;32;19940;-73
2022/12/28 08:24:44;;;;;;;;;;;;;;;;;;4453187;32;19947;-73
2022/12/28 08:27:09;;;;;;;;;;;;;;;;;;4453525;32;19952;-74
2022/12/28 08:29:34;;;;;;;;;;;;;;;;;;4453990;32;19937;-74
2022/12/28 08:31:59;;;;;;;;;;;;;;;;;;4453173;32;19932;-73
2022/12/28 08:34:25;;;;;;;;;;;;;;;;;;4452888;32;20026;-73
2022/12/28 08:36:51;;;;;;;;;;;;;;;;;;4452872;32;19972;-73
2022/12/28 08:39:16;;;;;;;;;;;;;;;;;;4439482;32;19987;-72
2022/12/28 08:41:41;;;;;;;;;;;;;;;;;;4454724;32;19955;-75
2022/12/28 08:44:06;;;;;;;;;;;;;;;;;;4453745;32;19940;-74
2022/12/28 08:46:31;;;;;;;;;;;;;;;;;;4453210;32;19941;-73
2022/12/28 08:48:56;;;;;;;;;;;;;;;;;;4452753;32;19947;-73
2022/12/28 08:51:21;;;;;;;;;;;;;;;;;;4452627;32;19979;-73
2022/12/28 08:53:46;;;;;;;;;;;;;;;;;;4452708;32;20293;-73
2022/12/28 08:56:12;;;;;;;;;;;;;;;;;;4453397;32;19929;-73
2022/12/28 08:58:37;;;;;;;;;;;;;;;;;;4452889;32;19937;-73
2022/12/28 09:01:02;;;;;;;;;;;;;;;;;;4453833;32;20019;-73
2022/12/28 09:03:27;;;;;;;;;;;;;;;;;;4452262;32;19944;-74
2022/12/28 09:05:52;;;;;;;;;;;;;;;;;;4452551;32;19980;-73
2022/12/28 09:08:17;;;;;;;;;;;;;;;;;;4454294;32;19933;-75
2022/12/28 09:10:42;;;;;;;;;;;;;;;;;;4438423;32;19941;-73
2022/12/28 09:13:07;;;;;;;;;;;;;;;;;;4438523;32;19951;-73
2022/12/28 09:15:33;;;;;;;;;;;;;;;;;;4452047;32;19996;-73
2022/12/28 09:17:58;;;;;;;;;;;;;;;;;;4452944;32;19952;-73
2022/12/28 09:20:23;;;;;;;;;;;;;;;;;;4453534;32;19969;-74
2022/12/28 09:22:48;;;;;;;;;;;;;;;;;;4437619;32;19993;-74
2022/12/28 09:25:13;;;;;;;;;;;;;;;;;;4452259;32;19932;-74
2022/12/28 09:27:38;;;;;;;;;;;;;;;;;;4451548;32;20254;-73
2022/12/28 09:30:03;;;;;;;;;;;;;;;;;;4437558;32;19947;-74
2022/12/28 09:32:28;;;;;;;;;;;;;;;;;;4452219;32;19946;-74
2022/12/28 09:34:54;;;;;;;;;;;;;;;;;;4452233;32;20241;-72
2022/12/28 09:37:19;;;;;;;;;;;;;;;;;;4453835;32;19964;-74
2022/12/28 09:39:44;;;;;;;;;;;;;;;;;;4438178;32;19945;-73
2022/12/28 09:42:09;;;;;;;;;;;;;;;;;;4437842;32;19983;-73
2022/12/28 09:44:34;;;;;;;;;;;;;;;;;;4453244;32;19992;-73
2022/12/28 09:46:59;;;;;;;;;;;;;;;;;;4451422;32;19990;-73
2022/12/28 09:49:24;;;;;;;;;;;;;;;;;;4452208;32;19937;-74
2022/12/28 09:51:50;;;;;;;;;;;;;;;;;;4451972;32;19959;-74
2022/12/28 09:54:15;;;;;;;;;;;;;;;;;;4451572;32;19951;-74
2022/12/28 09:56:40;;;;;;;;;;;;;;;;;;4451551;32;19976;-74
2022/12/28 09:59:05;;;;;;;;;;;;;;;;;;4453391;32;19948;-74
2022/12/28 10:01:30;;;;;;;;;;;;;;;;;;4452926;32;20031;-74
2022/12/28 10:03:55;;;;;;;;;;;;;;;;;;4452502;32;19947;-74
2022/12/28 10:06:20;;;;;;;;;;;;;;;;;;4451689;32;19940;-74
2022/12/28 10:08:45;;;;;;;;;;;;;;;;;;4452250;32;19937;-73
2022/12/28 10:11:11;;;;;;;;;;;;;;;;;;4451500;32;19968;-72
2022/12/28 10:13:36;;;;;;;;;;;;;;;;;;4451081;32;19980;-73
2022/12/28 10:16:01;;;;;;;;;;;;;;;;;;4451622;32;19947;-74
2022/12/28 10:18:26;;;;;;;;;;;;;;;;;;4450662;32;19940;-75
2022/12/28 10:20:51;;;;;;;;;;;;;;;;;;4451261;32;19944;-74
2022/12/28 10:23:16;;;;;;;;;;;;;;;;;;4450840;32;19945;-74
2022/12/28 10:25:41;;;;;;;;;;;;;;;;;;4452779;32;19951;-74
2022/12/28 10:28:07;;;;;;;;;;;;;;;;;;4451136;32;19937;-75
2022/12/28 10:30:32;;;;;;;;;;;;;;;;;;4450727;32;20362;-73
2022/12/28 10:32:57;;;;;;;;;;;;;;;;;;4436841;32;19951;-74
2022/12/28 10:35:22;;;;;;;;;;;;;;;;;;4451116;32;19933;-75
2022/12/28 10:37:47;;;;;;;;;;;;;;;;;;4450448;32;20019;-75
2022/12/28 10:40:13;;;;;;;;;;;;;;;;;;4450107;32;19984;-76
2022/12/28 10:42:38;;;;;;;;;;;;;;;;;;4451355;32;20061;-77
2022/12/28 10:45:04;;;;;;;;;;;;;;;;;;4450973;32;19960;-79
2022/12/28 10:47:30;;;;;;;;;;;;;;;;;;4452462;32;19933;-77
2022/12/28 10:49:55;;;;;;;;;;;;;;;;;;4453936;32;19951;-77
2022/12/28 10:52:20;;;;;;;;;;;;;;;;;;4454103;32;19960;-77
2022/12/28 10:54:45;;;;;;;;;;;;;;;;;;4453202;32;19945;-77
2022/12/28 10:57:10;;;;;;;;;;;;;;;;;;4453669;32;19944;-77
2022/12/28 10:59:37;;;;;;;;;;;;;;;;;;4453179;32;19949;-76
2022/12/28 11:02:02;;;;;;;;;;;;;;;;;;4453072;32;19932;-76
2022/12/28 11:04:28;;;;;;;;;;;;;;;;;;4453309;32;20007;-77
2022/12/28 11:06:53;;;;;;;;;;;;;;;;;;4438188;32;19936;-77
2022/12/28 11:09:18;;;;;;;;;;;;;;;;;;4453464;32;19932;-76
2022/12/28 11:11:43;;;;;;;;;;;;;;;;;;4453444;32;19936;-77
2022/12/28 11:14:08;;;;;;;;;;;;;;;;;;4452941;32;19992;-78
2022/12/28 11:16:33;;;;;;;;;;;;;;;;;;4438461;32;19936;-78
2022/12/28 11:18:58;;;;;;;;;;;;;;;;;;4453926;32;20261;-76
2022/12/28 11:21:23;;;;;;;;;;;;;;;;;;4454565;32;19988;-76
2022/12/28 11:23:48;;;;;;;;;;;;;;;;;;4454968;32;19932;-79
2022/12/28 11:26:14;;;;;;;;;;;;;;;;;;4454712;32;19988;-79
2022/12/28 11:28:39;;;;;;;;;;;;;;;;;;4438768;32;19937;-76
2022/12/28 11:31:04;;;;;;;;;;;;;;;;;;4453937;32;19972;-77
2022/12/28 11:33:29;;;;;;;;;;;;;;;;;;4453528;32;19943;-77
2022/12/28 11:35:54;;;;;;;;;;;;;;;;;;4452960;32;19932;-76
2022/12/28 11:38:19;;;;;;;;;;;;;;;;;;4453390;32;20307;-78
2022/12/28 11:40:44;;;;;;;;;;;;;;;;;;4443525;32;19941;-78
2022/12/28 11:43:09;;;;;;;;;;;;;;;;;;4457331;32;20297;-78
2022/12/28 11:45:35;;;;;;;;;;;;;;;;;;4456584;32;19956;-75
2022/12/28 11:48:00;;;;;;;;;;;;;;;;;;4456176;32;19976;-76
2022/12/28 11:50:25;;;;;;;;;;;;;;;;;;4456385;32;19972;-79
2022/12/28 11:52:50;;;;;;;;;;;;;;;;;;4445409;32;19936;-77
2022/12/28 11:55:15;;;;;;;;;;;;;;;;;;4457211;32;20292;-77
2022/12/28 11:57:40;;;;;;;;;;;;;;;;;;4454386;32;20009;-75
2022/12/28 12:00:05;;;;;;;;;;;;;;;;;;4451502;32;19981;-75
2022/12/28 12:02:30;;;;;;;;;;;;;;;;;;4453461;32;20037;-76
2022/12/28 12:04:55;;;;;;;;;;;;;;;;;;4453489;32;19932;-78
2022/12/28 12:07:20;;;;;;;;;;;;;;;;;;4453863;32;19950;-78
2022/12/28 12:09:46;;;;;;;;;;;;;;;;;;4452909;32;19941;-79
2022/12/28 12:12:11;;;;;;;;;;;;;;;;;;4438740;32;19968;-78
2022/12/28 12:14:36;;;;;;;;;;;;;;;;;;4438976;32;19988;-79
2022/12/28 12:17:04;;;;;;;;;;;;;;;;;;4438539;32;20032;-79
2022/12/28 12:19:29;;;;;;;;;;;;;;;;;;4452993;32;19951;-78
2022/12/28 12:21:54;;;;;;;;;;;;;;;;;;4438799;32;19937;-79
2022/12/28 12:24:19;;;;;;;;;;;;;;;;;;4453389;32;20294;-78
2022/12/28 12:26:45;;;;;;;;;;;;;;;;;;4439199;32;19937;-78
2022/12/28 12:29:13;;;;;;;;;;;;;;;;;;4438716;32;19932;-77
2022/12/28 12:31:38;;;;;;;;;;;;;;;;;;4452429;32;20368;-77
2022/12/28 12:34:03;;;;;;;;;;;;;;;;;;4452905;32;20238;-78
2022/12/28 12:36:28;;;;;;;;;;;;;;;;;;4439254;32;19950;-76
2022/12/28 12:38:53;;;;;;;;;;;;;;;;;;4452061;32;19940;-78
2022/12/28 12:41:18;;;;;;;;;;;;;;;;;;4452193;32;19933;-77
2022/12/28 12:43:44;;;;;;;;;;;;;;;;;;4452982;32;19932;-74
2022/12/28 12:46:09;;;;;;;;;;;;;;;;;;4440632;32;19932;-78
2022/12/28 12:48:34;;;;;;;;;;;;;;;;;;4458774;32;20298;-75
2022/12/28 12:50:59;;;;;;;;;;;;;;;;;;4452562;32;19941;-76
2022/12/28 12:53:24;;;;;;;;;;;;;;;;;;4438450;32;19983;-75
2022/12/28 12:55:49;;;;;;;;;;;;;;;;;;4452904;32;19946;-76
2022/12/28 12:58:14;;;;;;;;;;;;;;;;;;4452464;32;20385;-74
2022/12/28 13:00:39;;;;;;;;;;;;;;;;;;4452125;32;19954;-75
2022/12/28 13:03:04;;;;;;;;;;;;;;;;;;4453647;32;19936;-75
2022/12/28 13:05:30;;;;;;;;;;;;;;;;;;4452538;32;19947;-76
2022/12/28 13:07:56;;;;;;;;;;;;;;;;;;4452164;32;19943;-76
2022/12/28 13:10:22;;;;;;;;;;;;;;;;;;4452554;32;19950;-76
2022/12/28 13:12:47;;;;;;;;;;;;;;;;;;4452991;32;20287;-75
2022/12/28 13:15:12;;;;;;;;;;;;;;;;;;4452274;32;19975;-75
2022/12/28 13:17:37;;;;;;;;;;;;;;;;;;4452154;32;19932;-73
2022/12/28 13:20:02;;;;;;;;;;;;;;;;;;4437529;32;19948;-73
2022/12/28 13:22:27;;;;;;;;;;;;;;;;;;4452520;32;19941;-74
2022/12/28 13:24:52;;;;;;;;;;;;;;;;;;4452953;32;20000;-73
2022/12/28 13:27:17;;;;;;;;;;;;;;;;;;4451644;32;19932;-74
2022/12/28 13:29:42;;;;;;;;;;;;;;;;;;4452510;32;19951;-74
2022/12/28 13:32:08;;;;;;;;;;;;;;;;;;4452133;32;19932;-74
2022/12/28 13:34:37;;;;;;;;;;;;;;;;;;4453053;32;19929;-74
2022/12/28 13:37:02;;;;;;;;;;;;;;;;;;4451736;32;19936;-74
2022/12/28 13:39:27;;;;;;;;;;;;;;;;;;4451223;32;19952;-74
2022/12/28 13:41:52;;;;;;;;;;;;;;;;;;4451301;32;19967;-73
2022/12/28 13:44:18;;;;;;;;;;;;;;;;;;4451922;32;19933;-72
2022/12/28 13:46:43;;;;;;;;;;;;;;;;;;4452078;32;20367;-73
2022/12/28 13:49:08;;;;;;;;;;;;;;;;;;4451158;32;20294;-73
2022/12/28 13:51:33;;;;;;;;;;;;;;;;;;4451682;32;19936;-73
2022/12/28 13:53:58;;;;;;;;;;;;;;;;;;4451657;32;20286;-73
2022/12/28 13:56:23;;;;;;;;;;;;;;;;;;4439308;32;19936;-73
2022/12/28 13:58:48;;;;;;;;;;;;;;;;;;4452295;32;19950;-75
2022/12/28 14:01:13;;;;;;;;;;;;;;;;;;4450876;32;19941;-74
2022/12/28 14:03:38;;;;;;;;;;;;;;;;;;4453074;32;19961;-74
2022/12/28 14:06:05;;;;;;;;;;;;;;;;;;4452615;32;20044;-72
2022/12/28 14:08:30;;;;;;;;;;;;;;;;;;4452517;32;19951;-74
2022/12/28 14:10:55;;;;;;;;;;;;;;;;;;4451857;32;19952;-74
2022/12/28 14:13:20;;;;;;;;;;;;;;;;;;4450748;32;19936;-74
2022/12/28 14:15:45;;;;;;;;;;;;;;;;;;4451330;32;19973;-75
2022/12/28 14:18:10;;;;;;;;;;;;;;;;;;4451088;32;20019;-74
2022/12/28 14:20:36;;;;;;;;;;;;;;;;;;4452297;32;20260;-74
2022/12/28 14:23:01;;;;;;;;;;;;;;;;;;4451557;32;20338;-74
2022/12/28 14:25:26;;;;;;;;;;;;;;;;;;4451040;32;20302;-73
2022/12/28 14:27:51;;;;;;;;;;;;;;;;;;4451499;32;20922;-74
2022/12/28 14:30:16;;;;;;;;;;;;;;;;;;4450770;32;19932;-72
2022/12/28 14:32:41;;;;;;;;;;;;;;;;;;4450901;32;19955;-74
2022/12/28 14:35:06;;;;;;;;;;;;;;;;;;4450753;32;19936;-72
2022/12/28 14:37:31;;;;;;;;;;;;;;;;;;4450878;32;20313;-73
2022/12/28 14:39:56;;;;;;;;;;;;;;;;;;4451699;32;19937;-73
2022/12/28 14:42:21;;;;;;;;;;;;;;;;;;4450726;32;19950;-74
2022/12/28 14:44:46;;;;;;;;;;;;;;;;;;4451820;32;19975;-73
2022/12/28 14:47:12;;;;;;;;;;;;;;;;;;4436719;32;20328;-73
2022/12/28 14:49:37;;;;;;;;;;;;;;;;;;4436846;32;20306;-73
2022/12/28 14:52:02;;;;;;;;;;;;;;;;;;4437758;32;20397;-74
2022/12/28 14:54:27;;;;;;;;;;;;;;;;;;4450828;32;19989;-73
2022/12/28 14:56:52;;;;;;;;;;;;;;;;;;4451683;32;19944;-73
2022/12/28 14:59:17;;;;;;;;;;;;;;;;;;4450888;32;19961;-73
2022/12/28 15:01:42;;;;;;;;;;;;;;;;;;4452868;32;19972;-74
2022/12/28 15:04:08;;;;;;;;;;;;;;;;;;4436759;32;19936;-74
2022/12/28 15:06:33;;;;;;;;;;;;;;;;;;4450993;32;19940;-74
2022/12/28 15:08:58;;;;;;;;;;;;;;;;;;4451464;32;20325;-74
2022/12/28 15:11:23;;;;;;;;;;;;;;;;;;4452213;32;19997;-74
2022/12/28 15:13:49;;;;;;;;;;;;;;;;;;4450381;32;19959;-73
2022/12/28 15:16:14;;;;;;;;;;;;;;;;;;4451797;32;19933;-74
2022/12/28 15:18:43;;;;;;;;;;;;;;;;;;4453270;32;20287;-74
2022/12/28 15:21:08;;;;;;;;;;;;;;;;;;4453642;32;19947;-77
2022/12/28 15:23:33;;;;;;;;;;;;;;;;;;4438955;32;19944;-74
2022/12/28 15:25:59;;;;;;;;;;;;;;;;;;4455065;32;19970;-75
2022/12/28 15:28:24;;;;;;;;;;;;;;;;;;4452953;32;20008;-76
2022/12/28 15:30:49;;;;;;;;;;;;;;;;;;4454183;32;19937;-77
2022/12/28 15:33:15;;;;;;;;;;;;;;;;;;4452843;32;20257;-78
2022/12/28 15:35:40;;;;;;;;;;;;;;;;;;4453876;32;20318;-77
2022/12/28 15:38:05;;;;;;;;;;;;;;;;;;4453275;32;20010;-78
2022/12/28 15:40:30;;;;;;;;;;;;;;;;;;4453194;32;19965;-77
2022/12/28 15:42:55;;;;;;;;;;;;;;;;;;4452964;32;19970;-77
2022/12/28 15:45:20;;;;;;;;;;;;;;;;;;4452056;32;20279;-77
2022/12/28 15:47:45;;;;;;;;;;;;;;;;;;4453056;32;19970;-76
2022/12/28 15:50:11;;;;;;;;;;;;;;;;;;4439181;32;19967;-74
2022/12/28 15:52:36;;;;;;;;;;;;;;;;;;4438548;32;19948;-75
2022/12/28 15:55:01;;;;;;;;;;;;;;;;;;4453782;32;19964;-77
2022/12/28 15:57:26;;;;;;;;;;;;;;;;;;4454544;32;20015;-76
2022/12/28 15:59:51;;;;;;;;;;;;;;;;;;4453424;32;19940;-76
2022/12/28 16:02:16;;;;;;;;;;;;;;;;;;4440396;32;19960;-76
2022/12/28 16:04:41;;;;;;;;;;;;;;;;;;4452835;32;19951;-77
2022/12/28 16:07:07;;;;;;;;;;;;;;;;;;4453398;32;19952;-76
2022/12/28 16:09:32;;;;;;;;;;;;;;;;;;4452697;32;20295;-75
2022/12/28 16:11:57;;;;;;;;;;;;;;;;;;4453391;32;19940;-75
2022/12/28 16:14:22;;;;;;;;;;;;;;;;;;4453542;32;19991;-75
2022/12/28 16:16:47;;;;;;;;;;;;;;;;;;4438937;32;19936;-74
2022/12/28 16:19:12;;;;;;;;;;;;;;;;;;4454543;32;19936;-75
2022/12/28 16:21:37;;;;;;;;;;;;;;;;;;4452277;32;19944;-76
2022/12/28 16:24:03;;;;;;;;;;;;;;;;;;4453057;32;20017;-75
2022/12/28 16:26:28;;;;;;;;;;;;;;;;;;4439509;32;19951;-74
2022/12/28 16:28:53;;;;;;;;;;;;;;;;;;4452087;32;19937;-75
2022/12/28 16:31:18;;;;;;;;;;;;;;;;;;4451835;32;19932;-75
2022/12/28 16:33:43;;;;;;;;;;;;;;;;;;4438912;32;19977;-77
2022/12/28 16:36:08;;;;;;;;;;;;;;;;;;4438552;32;19940;-76
2022/12/28 16:38:33;;;;;;;;;;;;;;;;;;4439673;32;20269;-76
2022/12/28 16:40:58;;;;;;;;;;;;;;;;;;4439226;32;19936;-77
2022/12/28 16:43:24;;;;;;;;;;;;;;;;;;4438994;32;19951;-77
2022/12/28 16:45:49;;;;;;;;;;;;;;;;;;4453369;32;20052;-77
2022/12/28 16:48:14;;;;;;;;;;;;;;;;;;4454124;32;20374;-76
2022/12/28 16:50:39;;;;;;;;;;;;;;;;;;4452198;32;19973;-76
2022/12/28 16:53:04;;;;;;;;;;;;;;;;;;4452549;32;19937;-77